Terminal Aerodrome Forecast
Issued by NWS Lubbock, TX

Home | Current Version | Previous Version | Text Only | Print | Product List | Glossary On
Versions: 1 2 3 4 5 6 7 8 9 10 11 12 13
000
FTUS44 KLUB 172300
TAFLBB
TAF
KLBB 172322Z 1800/1824 06010KT P6SM SCT035 SCT200
     FM180900 08008KT 5SM BR BKN010
     FM181500 16011KT P6SM SCT300=

USA.gov is the U.S. government's official web portal to all federal, state and local government web resources and services.